sensor_id;sensor_type;location;lat;lon;timestamp;temperature;humidity
423;DHT22;198;48.752;9.180;2022-10-16T00:00:52;16.60;99.90
423;DHT22;198;48.752;9.180;2022-10-16T00:03:18;16.60;99.90
423;DHT22;198;48.752;9.180;2022-10-16T00:05:44;16.60;99.90
423;DHT22;198;48.752;9.180;2022-10-16T00:08:11;16.60;99.90
423;DHT22;198;48.752;9.180;2022-10-16T00:10:36;16.60;99.90
423;DHT22;198;48.752;9.180;2022-10-16T00:13:03;16.60;99.90
423;DHT22;198;48.752;9.180;2022-10-16T00:15:28;16.60;99.90
423;DHT22;198;48.752;9.180;2022-10-16T00:17:54;16.50;99.90
423;DHT22;198;48.752;9.180;2022-10-16T00:20:20;16.50;99.90
423;DHT22;198;48.752;9.180;2022-10-16T00:22:45;16.50;99.90
423;DHT22;198;48.752;9.180;2022-10-16T00:25:11;16.50;99.90
423;DHT22;198;48.752;9.180;2022-10-16T00:27:36;16.40;99.90
423;DHT22;198;48.752;9.180;2022-10-16T00:30:02;16.40;99.90
423;DHT22;198;48.752;9.180;2022-10-16T00:32:28;16.40;99.90
423;DHT22;198;48.752;9.180;2022-10-16T00:34:54;16.40;99.90
423;DHT22;198;48.752;9.180;2022-10-16T00:37:22;16.30;99.90
423;DHT22;198;48.752;9.180;2022-10-16T00:39:48;16.30;99.90
423;DHT22;198;48.752;9.180;2022-10-16T00:42:17;16.30;99.90
423;DHT22;198;48.752;9.180;2022-10-16T00:44:55;16.20;99.90
423;DHT22;198;48.752;9.180;2022-10-16T00:47:29;16.10;99.90
423;DHT22;198;48.752;9.180;2022-10-16T00:50:11;16.20;99.90
423;DHT22;198;48.752;9.180;2022-10-16T00:52:41;16.20;99.90
423;DHT22;198;48.752;9.180;2022-10-16T00:55:08;16.20;99.90
423;DHT22;198;48.752;9.180;2022-10-16T00:57:34;16.20;99.90
423;DHT22;198;48.752;9.180;2022-10-16T01:00:00;16.20;99.90
423;DHT22;198;48.752;9.180;2022-10-16T01:02:26;16.10;99.90
423;DHT22;198;48.752;9.180;2022-10-16T01:04:53;16.10;99.90
423;DHT22;198;48.752;9.180;2022-10-16T01:07:45;16.10;99.90
423;DHT22;198;48.752;9.180;2022-10-16T01:10:27;16.20;99.90
423;DHT22;198;48.752;9.180;2022-10-16T01:12:59;16.20;99.90
423;DHT22;198;48.752;9.180;2022-10-16T01:15:52;16.20;99.90
423;DHT22;198;48.752;9.180;2022-10-16T01:18:32;16.20;99.90
423;DHT22;198;48.752;9.180;2022-10-16T01:21:03;16.20;99.90
423;DHT22;198;48.752;9.180;2022-10-16T01:32:31;16.20;99.90
423;DHT22;198;48.752;9.180;2022-10-16T01:35:05;16.20;99.90
423;DHT22;198;48.752;9.180;2022-10-16T01:37:40;16.20;99.90
423;DHT22;198;48.752;9.180;2022-10-16T01:40:11;16.10;99.90
423;DHT22;198;48.752;9.180;2022-10-16T01:42:42;16.20;99.90
423;DHT22;198;48.752;9.180;2022-10-16T01:45:13;16.20;99.90
423;DHT22;198;48.752;9.180;2022-10-16T01:47:40;16.20;99.90
423;DHT22;198;48.752;9.180;2022-10-16T01:50:08;16.20;99.90
423;DHT22;198;48.752;9.180;2022-10-16T01:52:40;16.20;99.90
423;DHT22;198;48.752;9.180;2022-10-16T01:55:09;16.20;99.90
423;DHT22;198;48.752;9.180;2022-10-16T01:57:38;16.30;99.90
423;DHT22;198;48.752;9.180;2022-10-16T02:00:09;16.30;99.90
423;DHT22;198;48.752;9.180;2022-10-16T02:02:42;16.30;99.90
423;DHT22;198;48.752;9.180;2022-10-16T02:05:18;16.30;99.90
423;DHT22;198;48.752;9.180;2022-10-16T02:07:44;16.30;99.90
423;DHT22;198;48.752;9.180;2022-10-16T02:10:10;16.40;99.90
423;DHT22;198;48.752;9.180;2022-10-16T02:12:38;16.40;99.90
423;DHT22;198;48.752;9.180;2022-10-16T02:15:06;16.40;99.90
423;DHT22;198;48.752;9.180;2022-10-16T02:17:32;16.40;99.90
423;DHT22;198;48.752;9.180;2022-10-16T02:19:59;16.40;99.90
423;DHT22;198;48.752;9.180;2022-10-16T02:22:32;16.40;99.90
423;DHT22;198;48.752;9.180;2022-10-16T02:25:03;16.40;99.90
423;DHT22;198;48.752;9.180;2022-10-16T02:32:40;16.40;99.90
423;DHT22;198;48.752;9.180;2022-10-16T02:35:08;16.40;99.90
423;DHT22;198;48.752;9.180;2022-10-16T02:37:34;16.40;99.90
423;DHT22;198;48.752;9.180;2022-10-16T02:40:01;16.50;99.90
423;DHT22;198;48.752;9.180;2022-10-16T02:42:36;16.40;99.90
423;DHT22;198;48.752;9.180;2022-10-16T02:45:03;16.50;99.90
423;DHT22;198;48.752;9.180;2022-10-16T02:47:29;16.50;99.90
423;DHT22;198;48.752;9.180;2022-10-16T02:49:54;16.50;99.90
423;DHT22;198;48.752;9.180;2022-10-16T02:52:20;16.50;99.90
423;DHT22;198;48.752;9.180;2022-10-16T02:54:45;16.60;99.90
423;DHT22;198;48.752;9.180;2022-10-16T02:57:11;16.50;99.90
423;DHT22;198;48.752;9.180;2022-10-16T02:59:37;16.50;99.90
423;DHT22;198;48.752;9.180;2022-10-16T03:02:03;16.50;99.90
423;DHT22;198;48.752;9.180;2022-10-16T03:04:28;16.50;99.90
423;DHT22;198;48.752;9.180;2022-10-16T03:06:54;16.50;99.90
423;DHT22;198;48.752;9.180;2022-10-16T03:09:19;16.50;99.90
423;DHT22;198;48.752;9.180;2022-10-16T03:11:45;16.50;99.90
423;DHT22;198;48.752;9.180;2022-10-16T03:14:10;16.50;99.90
423;DHT22;198;48.752;9.180;2022-10-16T03:16:36;16.50;99.90
423;DHT22;198;48.752;9.180;2022-10-16T03:19:01;16.50;99.90
423;DHT22;198;48.752;9.180;2022-10-16T03:21:27;16.50;99.90
423;DHT22;198;48.752;9.180;2022-10-16T03:23:52;16.50;99.90
423;DHT22;198;48.752;9.180;2022-10-16T03:26:18;16.50;99.90
423;DHT22;198;48.752;9.180;2022-10-16T03:28:43;16.50;99.90
423;DHT22;198;48.752;9.180;2022-10-16T03:31:09;16.40;99.90
423;DHT22;198;48.752;9.180;2022-10-16T03:33:34;16.40;99.90
423;DHT22;198;48.752;9.180;2022-10-16T03:36:00;16.40;99.90
423;DHT22;198;48.752;9.180;2022-10-16T03:38:25;16.40;99.90
423;DHT22;198;48.752;9.180;2022-10-16T03:40:51;16.40;99.90
423;DHT22;198;48.752;9.180;2022-10-16T03:43:16;16.40;99.90
423;DHT22;198;48.752;9.180;2022-10-16T03:45:42;16.40;99.90
423;DHT22;198;48.752;9.180;2022-10-16T03:48:08;16.40;99.90
423;DHT22;198;48.752;9.180;2022-10-16T03:50:33;16.30;99.90
423;DHT22;198;48.752;9.180;2022-10-16T03:52:59;16.30;99.90
423;DHT22;198;48.752;9.180;2022-10-16T03:55:24;16.30;99.90
423;DHT22;198;48.752;9.180;2022-10-16T03:57:50;16.30;99.90
423;DHT22;198;48.752;9.180;2022-10-16T04:00:15;16.20;99.90
423;DHT22;198;48.752;9.180;2022-10-16T04:02:41;16.20;99.90
423;DHT22;198;48.752;9.180;2022-10-16T04:05:07;16.20;99.90
423;DHT22;198;48.752;9.180;2022-10-16T04:07:32;16.20;99.90
423;DHT22;198;48.752;9.180;2022-10-16T04:09:58;16.10;99.90
423;DHT22;198;48.752;9.180;2022-10-16T04:12:25;16.10;99.90
423;DHT22;198;48.752;9.180;2022-10-16T04:14:50;16.10;99.90
423;DHT22;198;48.752;9.180;2022-10-16T04:17:16;16.10;99.90
423;DHT22;198;48.752;9.180;2022-10-16T04:19:41;16.10;99.90
423;DHT22;198;48.752;9.180;2022-10-16T04:22:07;16.10;99.90
423;DHT22;198;48.752;9.180;2022-10-16T04:24:33;16.10;99.90
423;DHT22;198;48.752;9.180;2022-10-16T04:26:58;16.10;99.90
423;DHT22;198;48.752;9.180;2022-10-16T04:29:24;16.10;99.90
423;DHT22;198;48.752;9.180;2022-10-16T04:31:49;16.10;99.90
423;DHT22;198;48.752;9.180;2022-10-16T04:34:15;16.20;99.90
423;DHT22;198;48.752;9.180;2022-10-16T04:36:40;16.20;99.90
423;DHT22;198;48.752;9.180;2022-10-16T04:39:06;16.20;99.90
423;DHT22;198;48.752;9.180;2022-10-16T04:41:31;16.20;99.90
423;DHT22;198;48.752;9.180;2022-10-16T04:43:57;16.20;99.90
423;DHT22;198;48.752;9.180;2022-10-16T04:46:23;16.20;99.90
423;DHT22;198;48.752;9.180;2022-10-16T04:48:48;16.20;99.90
423;DHT22;198;48.752;9.180;2022-10-16T04:51:14;16.20;99.90
423;DHT22;198;48.752;9.180;2022-10-16T04:53:39;16.20;99.90
423;DHT22;198;48.752;9.180;2022-10-16T04:56:05;16.20;99.90
423;DHT22;198;48.752;9.180;2022-10-16T04:58:30;16.20;99.90
423;DHT22;198;48.752;9.180;2022-10-16T05:00:56;16.20;99.90
423;DHT22;198;48.752;9.180;2022-10-16T05:03:21;16.20;99.90
423;DHT22;198;48.752;9.180;2022-10-16T05:05:47;16.20;99.90
423;DHT22;198;48.752;9.180;2022-10-16T05:08:14;16.20;99.90
423;DHT22;198;48.752;9.180;2022-10-16T05:10:44;16.20;99.90
423;DHT22;198;48.752;9.180;2022-10-16T05:13:10;16.20;99.90
423;DHT22;198;48.752;9.180;2022-10-16T05:15:36;16.20;99.90
423;DHT22;198;48.752;9.180;2022-10-16T05:18:02;16.20;99.90
423;DHT22;198;48.752;9.180;2022-10-16T05:20:28;16.20;99.90
423;DHT22;198;48.752;9.180;2022-10-16T05:22:54;16.20;99.90
423;DHT22;198;48.752;9.180;2022-10-16T05:25:19;16.20;99.90
423;DHT22;198;48.752;9.180;2022-10-16T05:27:48;16.20;99.90
423;DHT22;198;48.752;9.180;2022-10-16T05:30:15;16.20;99.90
423;DHT22;198;48.752;9.180;2022-10-16T05:32:41;16.20;99.90
423;DHT22;198;48.752;9.180;2022-10-16T05:35:06;16.20;99.90
423;DHT22;198;48.752;9.180;2022-10-16T05:37:33;16.10;99.90
423;DHT22;198;48.752;9.180;2022-10-16T05:39:58;16.10;99.90
423;DHT22;198;48.752;9.180;2022-10-16T05:42:24;16.00;99.90
423;DHT22;198;48.752;9.180;2022-10-16T05:44:49;16.00;99.90
423;DHT22;198;48.752;9.180;2022-10-16T05:47:15;16.00;99.90
423;DHT22;198;48.752;9.180;2022-10-16T05:49:40;15.90;99.90
423;DHT22;198;48.752;9.180;2022-10-16T05:52:06;15.90;99.90
423;DHT22;198;48.752;9.180;2022-10-16T05:54:31;15.90;99.90
423;DHT22;198;48.752;9.180;2022-10-16T05:56:57;15.90;99.90
423;DHT22;198;48.752;9.180;2022-10-16T05:59:22;15.90;99.90
423;DHT22;198;48.752;9.180;2022-10-16T06:01:48;15.90;99.90
423;DHT22;198;48.752;9.180;2022-10-16T06:04:14;16.00;99.90
423;DHT22;198;48.752;9.180;2022-10-16T06:06:39;16.00;99.90
423;DHT22;198;48.752;9.180;2022-10-16T06:09:05;16.00;99.90
423;DHT22;198;48.752;9.180;2022-10-16T06:11:32;16.10;99.90
423;DHT22;198;48.752;9.180;2022-10-16T06:13:59;16.10;99.90
423;DHT22;198;48.752;9.180;2022-10-16T06:16:28;16.20;99.90
423;DHT22;198;48.752;9.180;2022-10-16T06:18:54;16.30;99.90
423;DHT22;198;48.752;9.180;2022-10-16T06:21:23;16.40;99.90
423;DHT22;198;48.752;9.180;2022-10-16T06:23:54;16.40;99.90
423;DHT22;198;48.752;9.180;2022-10-16T06:26:23;16.50;99.90
423;DHT22;198;48.752;9.180;2022-10-16T06:28:49;16.50;99.90
423;DHT22;198;48.752;9.180;2022-10-16T06:31:15;16.60;99.90
423;DHT22;198;48.752;9.180;2022-10-16T06:33:41;16.60;99.90
423;DHT22;198;48.752;9.180;2022-10-16T06:36:09;16.60;99.90
423;DHT22;198;48.752;9.180;2022-10-16T06:38:36;16.70;99.90
423;DHT22;198;48.752;9.180;2022-10-16T06:41:01;16.70;99.90
423;DHT22;198;48.752;9.180;2022-10-16T06:43:29;16.80;99.90
423;DHT22;198;48.752;9.180;2022-10-16T06:45:59;16.80;99.90
423;DHT22;198;48.752;9.180;2022-10-16T06:48:25;16.90;99.90
423;DHT22;198;48.752;9.180;2022-10-16T06:53:29;17.10;99.90
423;DHT22;198;48.752;9.180;2022-10-16T06:55:56;17.10;99.90
423;DHT22;198;48.752;9.180;2022-10-16T06:58:22;17.10;99.90
423;DHT22;198;48.752;9.180;2022-10-16T07:00:48;17.10;99.90
423;DHT22;198;48.752;9.180;2022-10-16T07:03:14;17.10;99.90
423;DHT22;198;48.752;9.180;2022-10-16T07:05:41;17.20;99.90
423;DHT22;198;48.752;9.180;2022-10-16T07:08:06;17.20;99.90
423;DHT22;198;48.752;9.180;2022-10-16T07:10:33;17.30;99.90
423;DHT22;198;48.752;9.180;2022-10-16T07:12:59;17.30;99.90
423;DHT22;198;48.752;9.180;2022-10-16T07:15:25;17.40;99.90
423;DHT22;198;48.752;9.180;2022-10-16T07:17:51;17.50;99.90
423;DHT22;198;48.752;9.180;2022-10-16T07:20:16;17.50;99.90
423;DHT22;198;48.752;9.180;2022-10-16T07:22:42;17.50;99.90
423;DHT22;198;48.752;9.180;2022-10-16T07:25:08;17.50;99.90
423;DHT22;198;48.752;9.180;2022-10-16T07:27:33;17.50;99.90
423;DHT22;198;48.752;9.180;2022-10-16T07:29:59;17.50;99.90
423;DHT22;198;48.752;9.180;2022-10-16T07:32:24;17.60;99.90
423;DHT22;198;48.752;9.180;2022-10-16T07:34:51;17.50;99.90
423;DHT22;198;48.752;9.180;2022-10-16T07:37:17;17.50;99.90
423;DHT22;198;48.752;9.180;2022-10-16T07:39:42;17.50;99.90
423;DHT22;198;48.752;9.180;2022-10-16T07:42:08;17.50;99.90
423;DHT22;198;48.752;9.180;2022-10-16T07:44:33;17.60;99.90
423;DHT22;198;48.752;9.180;2022-10-16T07:46:59;17.60;99.90
423;DHT22;198;48.752;9.180;2022-10-16T07:49:24;17.70;99.90
423;DHT22;198;48.752;9.180;2022-10-16T07:51:50;17.70;99.90
423;DHT22;198;48.752;9.180;2022-10-16T07:54:15;17.70;99.90
423;DHT22;198;48.752;9.180;2022-10-16T07:56:41;17.80;99.90
423;DHT22;198;48.752;9.180;2022-10-16T07:59:06;17.80;99.90
423;DHT22;198;48.752;9.180;2022-10-16T08:01:32;17.80;99.90
423;DHT22;198;48.752;9.180;2022-10-16T08:03:57;17.90;99.90
423;DHT22;198;48.752;9.180;2022-10-16T08:06:23;17.90;99.90
423;DHT22;198;48.752;9.180;2022-10-16T08:08:49;17.90;99.90
423;DHT22;198;48.752;9.180;2022-10-16T08:11:14;18.00;99.90
423;DHT22;198;48.752;9.180;2022-10-16T08:13:41;18.10;99.90
423;DHT22;198;48.752;9.180;2022-10-16T08:16:06;18.20;99.90
423;DHT22;198;48.752;9.180;2022-10-16T08:18:34;18.30;99.90
423;DHT22;198;48.752;9.180;2022-10-16T08:21:01;18.40;99.90
423;DHT22;198;48.752;9.180;2022-10-16T08:23:27;18.60;99.90
423;DHT22;198;48.752;9.180;2022-10-16T08:25:54;18.80;99.90
423;DHT22;198;48.752;9.180;2022-10-16T08:28:20;19.10;99.90
423;DHT22;198;48.752;9.180;2022-10-16T08:30:46;19.30;99.90
423;DHT22;198;48.752;9.180;2022-10-16T08:33:11;19.50;99.90
423;DHT22;198;48.752;9.180;2022-10-16T08:35:37;19.50;99.90
423;DHT22;198;48.752;9.180;2022-10-16T08:38:04;19.60;99.90
423;DHT22;198;48.752;9.180;2022-10-16T08:40:31;19.70;99.90
423;DHT22;198;48.752;9.180;2022-10-16T08:48:36;19.70;99.90
423;DHT22;198;48.752;9.180;2022-10-16T08:51:08;19.50;99.90
423;DHT22;198;48.752;9.180;2022-10-16T08:54:06;19.50;99.90
423;DHT22;198;48.752;9.180;2022-10-16T08:56:32;19.40;99.90
423;DHT22;198;48.752;9.180;2022-10-16T08:58:59;19.20;99.90
423;DHT22;198;48.752;9.180;2022-10-16T09:01:37;19.10;99.90
423;DHT22;198;48.752;9.180;2022-10-16T09:04:29;19.10;99.90
423;DHT22;198;48.752;9.180;2022-10-16T09:07:04;19.30;99.90
423;DHT22;198;48.752;9.180;2022-10-16T09:09:42;19.60;99.90
423;DHT22;198;48.752;9.180;2022-10-16T09:23:15;21.50;99.90
423;DHT22;198;48.752;9.180;2022-10-16T09:25:47;21.80;99.90
423;DHT22;198;48.752;9.180;2022-10-16T09:28:14;22.10;99.90
423;DHT22;198;48.752;9.180;2022-10-16T09:30:40;22.20;99.90
423;DHT22;198;48.752;9.180;2022-10-16T09:33:06;22.30;99.90
423;DHT22;198;48.752;9.180;2022-10-16T09:35:43;22.40;99.90
423;DHT22;198;48.752;9.180;2022-10-16T09:38:09;22.60;99.90
423;DHT22;198;48.752;9.180;2022-10-16T09:40:45;25.10;99.90
423;DHT22;198;48.752;9.180;2022-10-16T09:46:03;28.50;79.10
423;DHT22;198;48.752;9.180;2022-10-16T09:48:43;27.70;77.70
423;DHT22;198;48.752;9.180;2022-10-16T09:51:21;28.10;76.80
423;DHT22;198;48.752;9.180;2022-10-16T09:53:48;29.70;71.60
423;DHT22;198;48.752;9.180;2022-10-16T09:56:31;32.30;64.10
423;DHT22;198;48.752;9.180;2022-10-16T09:59:00;32.60;53.80
423;DHT22;198;48.752;9.180;2022-10-16T10:01:50;31.60;53.40
423;DHT22;198;48.752;9.180;2022-10-16T10:04:18;29.90;55.80
423;DHT22;198;48.752;9.180;2022-10-16T10:06:54;29.10;57.70
423;DHT22;198;48.752;9.180;2022-10-16T10:09:24;28.40;58.70
423;DHT22;198;48.752;9.180;2022-10-16T10:12:00;27.90;60.10
423;DHT22;198;48.752;9.180;2022-10-16T10:14:35;26.80;60.80
423;DHT22;198;48.752;9.180;2022-10-16T10:17:10;26.20;64.50
423;DHT22;198;48.752;9.180;2022-10-16T10:19:56;25.70;66.90
423;DHT22;198;48.752;9.180;2022-10-16T10:28:16;25.70;70.50
423;DHT22;198;48.752;9.180;2022-10-16T10:39:00;25.90;68.10
423;DHT22;198;48.752;9.180;2022-10-16T10:46:45;25.90;68.50
423;DHT22;198;48.752;9.180;2022-10-16T10:49:32;25.70;67.30
423;DHT22;198;48.752;9.180;2022-10-16T10:52:06;25.80;68.00
423;DHT22;198;48.752;9.180;2022-10-16T11:00:30;26.20;67.70
423;DHT22;198;48.752;9.180;2022-10-16T11:03:51;25.90;66.10
423;DHT22;198;48.752;9.180;2022-10-16T11:06:19;25.70;68.10
423;DHT22;198;48.752;9.180;2022-10-16T11:09:09;26.30;64.40
423;DHT22;198;48.752;9.180;2022-10-16T11:11:44;27.60;63.00
423;DHT22;198;48.752;9.180;2022-10-16T11:16:42;27.60;59.10
423;DHT22;198;48.752;9.180;2022-10-16T11:19:31;27.40;59.20
423;DHT22;198;48.752;9.180;2022-10-16T11:22:03;27.40;59.60
423;DHT22;198;48.752;9.180;2022-10-16T11:30:22;28.40;56.60
423;DHT22;198;48.752;9.180;2022-10-16T11:33:56;28.10;56.70
423;DHT22;198;48.752;9.180;2022-10-16T11:35:55;28.50;57.20
423;DHT22;198;48.752;9.180;2022-10-16T11:38:37;29.80;54.00
423;DHT22;198;48.752;9.180;2022-10-16T11:44:18;35.20;46.40
423;DHT22;198;48.752;9.180;2022-10-16T11:49:53;37.90;38.80
423;DHT22;198;48.752;9.180;2022-10-16T11:52:28;39.60;36.10
423;DHT22;198;48.752;9.180;2022-10-16T11:55:14;39.70;35.40
423;DHT22;198;48.752;9.180;2022-10-16T11:57:48;40.80;34.10
423;DHT22;198;48.752;9.180;2022-10-16T12:05:28;41.30;30.40
423;DHT22;198;48.752;9.180;2022-10-16T12:08:13;40.70;30.50
423;DHT22;198;48.752;9.180;2022-10-16T12:10:42;40.70;31.90
423;DHT22;198;48.752;9.180;2022-10-16T12:18:38;44.50;28.60
423;DHT22;198;48.752;9.180;2022-10-16T12:21:04;45.00;28.60
423;DHT22;198;48.752;9.180;2022-10-16T12:23:32;45.80;28.20
423;DHT22;198;48.752;9.180;2022-10-16T12:25:59;46.20;27.60
423;DHT22;198;48.752;9.180;2022-10-16T12:28:30;46.00;27.20
423;DHT22;198;48.752;9.180;2022-10-16T12:31:00;46.10;27.20
423;DHT22;198;48.752;9.180;2022-10-16T12:33:31;46.80;26.70
423;DHT22;198;48.752;9.180;2022-10-16T12:36:00;47.20;27.20
423;DHT22;198;48.752;9.180;2022-10-16T12:38:31;47.30;26.40
423;DHT22;198;48.752;9.180;2022-10-16T12:43:44;45.80;25.80
423;DHT22;198;48.752;9.180;2022-10-16T12:48:41;44.60;26.60
423;DHT22;198;48.752;9.180;2022-10-16T12:51:19;43.60;27.90
423;DHT22;198;48.752;9.180;2022-10-16T12:53:46;42.00;28.20
423;DHT22;198;48.752;9.180;2022-10-16T12:56:31;40.00;28.90
423;DHT22;198;48.752;9.180;2022-10-16T12:59:31;37.90;31.20
423;DHT22;198;48.752;9.180;2022-10-16T13:05:31;34.50;36.40
423;DHT22;198;48.752;9.180;2022-10-16T13:08:29;33.30;38.20
423;DHT22;198;48.752;9.180;2022-10-16T13:16:54;31.00;42.80
423;DHT22;198;48.752;9.180;2022-10-16T13:19:48;30.50;43.20
423;DHT22;198;48.752;9.180;2022-10-16T13:28:09;29.30;46.30
423;DHT22;198;48.752;9.180;2022-10-16T13:30:38;29.10;47.40
423;DHT22;198;48.752;9.180;2022-10-16T13:35:55;28.80;46.60
423;DHT22;198;48.752;9.180;2022-10-16T13:38:32;28.50;46.70
423;DHT22;198;48.752;9.180;2022-10-16T13:41:12;28.40;46.80
423;DHT22;198;48.752;9.180;2022-10-16T13:43:49;28.20;50.20
423;DHT22;198;48.752;9.180;2022-10-16T13:46:17;27.90;50.70
423;DHT22;198;48.752;9.180;2022-10-16T13:48:44;27.90;52.10
423;DHT22;198;48.752;9.180;2022-10-16T13:51:17;27.90;51.70
423;DHT22;198;48.752;9.180;2022-10-16T13:53:44;27.80;52.60
423;DHT22;198;48.752;9.180;2022-10-16T13:56:15;27.90;53.50
423;DHT22;198;48.752;9.180;2022-10-16T13:58:42;27.90;56.00
423;DHT22;198;48.752;9.180;2022-10-16T14:01:15;27.90;54.70
423;DHT22;198;48.752;9.180;2022-10-16T14:03:42;27.80;52.80
423;DHT22;198;48.752;9.180;2022-10-16T14:06:13;27.70;52.90
423;DHT22;198;48.752;9.180;2022-10-16T14:08:47;27.60;55.50
423;DHT22;198;48.752;9.180;2022-10-16T14:11:21;27.50;55.40
423;DHT22;198;48.752;9.180;2022-10-16T14:13:48;27.30;54.80
423;DHT22;198;48.752;9.180;2022-10-16T14:16:22;27.00;55.30
423;DHT22;198;48.752;9.180;2022-10-16T14:19:03;26.80;58.70
423;DHT22;198;48.752;9.180;2022-10-16T14:21:32;26.70;60.30
423;DHT22;198;48.752;9.180;2022-10-16T14:23:57;26.50;60.10
423;DHT22;198;48.752;9.180;2022-10-16T14:26:26;26.40;61.60
423;DHT22;198;48.752;9.180;2022-10-16T14:29:21;26.30;61.10
423;DHT22;198;48.752;9.180;2022-10-16T14:31:58;26.20;64.30
423;DHT22;198;48.752;9.180;2022-10-16T14:34:33;26.10;64.90
423;DHT22;198;48.752;9.180;2022-10-16T14:37:09;26.10;66.10
423;DHT22;198;48.752;9.180;2022-10-16T14:39:39;26.20;62.10
423;DHT22;198;48.752;9.180;2022-10-16T14:42:14;26.20;59.40
423;DHT22;198;48.752;9.180;2022-10-16T14:44:42;26.10;60.50
423;DHT22;198;48.752;9.180;2022-10-16T14:47:10;26.00;60.70
423;DHT22;198;48.752;9.180;2022-10-16T14:49:38;25.90;59.40
423;DHT22;198;48.752;9.180;2022-10-16T14:52:09;25.90;59.20
423;DHT22;198;48.752;9.180;2022-10-16T14:54:35;25.90;63.90
423;DHT22;198;48.752;9.180;2022-10-16T14:57:01;25.80;69.30
423;DHT22;198;48.752;9.180;2022-10-16T14:59:35;25.80;71.20
423;DHT22;198;48.752;9.180;2022-10-16T15:04:46;25.80;70.20
423;DHT22;198;48.752;9.180;2022-10-16T15:07:12;25.90;68.60
423;DHT22;198;48.752;9.180;2022-10-16T15:09:37;25.90;66.10
423;DHT22;198;48.752;9.180;2022-10-16T15:12:03;26.00;62.90
423;DHT22;198;48.752;9.180;2022-10-16T15:14:28;26.00;62.10
423;DHT22;198;48.752;9.180;2022-10-16T15:16:54;25.90;61.80
423;DHT22;198;48.752;9.180;2022-10-16T15:19:19;25.90;63.10
423;DHT22;198;48.752;9.180;2022-10-16T15:21:45;25.90;64.10
423;DHT22;198;48.752;9.180;2022-10-16T15:24:12;25.90;66.70
423;DHT22;198;48.752;9.180;2022-10-16T15:26:38;26.20;67.10
423;DHT22;198;48.752;9.180;2022-10-16T15:29:04;26.70;68.40
423;DHT22;198;48.752;9.180;2022-10-16T15:31:30;26.90;69.50
423;DHT22;198;48.752;9.180;2022-10-16T15:33:55;27.40;65.70
423;DHT22;198;48.752;9.180;2022-10-16T15:36:35;27.60;64.10
423;DHT22;198;48.752;9.180;2022-10-16T15:39:06;27.50;63.40
423;DHT22;198;48.752;9.180;2022-10-16T15:41:35;27.50;63.20
423;DHT22;198;48.752;9.180;2022-10-16T15:44:01;27.40;61.00
423;DHT22;198;48.752;9.180;2022-10-16T15:46:26;27.00;60.90
423;DHT22;198;48.752;9.180;2022-10-16T15:48:57;26.70;62.00
423;DHT22;198;48.752;9.180;2022-10-16T15:51:23;26.30;65.30
423;DHT22;198;48.752;9.180;2022-10-16T15:53:48;25.90;68.40
423;DHT22;198;48.752;9.180;2022-10-16T15:56:16;25.60;69.00
423;DHT22;198;48.752;9.180;2022-10-16T15:58:41;25.20;70.10
423;DHT22;198;48.752;9.180;2022-10-16T16:01:07;24.90;70.90
423;DHT22;198;48.752;9.180;2022-10-16T16:03:35;24.60;73.00
423;DHT22;198;48.752;9.180;2022-10-16T16:06:06;24.30;73.00
423;DHT22;198;48.752;9.180;2022-10-16T16:08:33;24.10;76.00
423;DHT22;198;48.752;9.180;2022-10-16T16:11:05;23.80;77.60
423;DHT22;198;48.752;9.180;2022-10-16T16:13:31;23.50;78.30
423;DHT22;198;48.752;9.180;2022-10-16T16:15:56;23.30;78.00
423;DHT22;198;48.752;9.180;2022-10-16T16:18:22;23.10;79.40
423;DHT22;198;48.752;9.180;2022-10-16T16:20:49;22.90;80.60
423;DHT22;198;48.752;9.180;2022-10-16T16:23:15;22.70;80.90
423;DHT22;198;48.752;9.180;2022-10-16T16:25:40;22.50;81.60
423;DHT22;198;48.752;9.180;2022-10-16T16:28:06;22.30;82.50
423;DHT22;198;48.752;9.180;2022-10-16T16:30:32;22.10;82.70
423;DHT22;198;48.752;9.180;2022-10-16T16:32:58;22.00;83.80
423;DHT22;198;48.752;9.180;2022-10-16T16:35:23;21.90;84.50
423;DHT22;198;48.752;9.180;2022-10-16T16:37:49;21.70;85.80
423;DHT22;198;48.752;9.180;2022-10-16T16:40:14;21.60;86.70
423;DHT22;198;48.752;9.180;2022-10-16T16:42:40;21.50;87.80
423;DHT22;198;48.752;9.180;2022-10-16T16:45:06;21.30;89.00
423;DHT22;198;48.752;9.180;2022-10-16T16:47:31;21.20;90.30
423;DHT22;198;48.752;9.180;2022-10-16T16:49:57;21.20;91.00
423;DHT22;198;48.752;9.180;2022-10-16T16:52:22;21.10;91.80
423;DHT22;198;48.752;9.180;2022-10-16T16:54:48;21.00;92.50
423;DHT22;198;48.752;9.180;2022-10-16T16:57:20;21.00;93.60
423;DHT22;198;48.752;9.180;2022-10-16T16:59:46;20.90;94.70
423;DHT22;198;48.752;9.180;2022-10-16T17:02:11;20.70;95.70
423;DHT22;198;48.752;9.180;2022-10-16T17:04:37;20.70;96.90
423;DHT22;198;48.752;9.180;2022-10-16T17:07:03;20.60;98.20
423;DHT22;198;48.752;9.180;2022-10-16T17:09:28;20.50;99.30
423;DHT22;198;48.752;9.180;2022-10-16T17:11:54;20.40;99.90
423;DHT22;198;48.752;9.180;2022-10-16T17:14:19;20.30;99.90
423;DHT22;198;48.752;9.180;2022-10-16T17:16:45;20.30;99.90
423;DHT22;198;48.752;9.180;2022-10-16T17:19:15;20.30;99.90
423;DHT22;198;48.752;9.180;2022-10-16T17:21:42;20.20;99.90
423;DHT22;198;48.752;9.180;2022-10-16T17:24:07;20.20;99.90
423;DHT22;198;48.752;9.180;2022-10-16T17:26:33;20.10;99.90
423;DHT22;198;48.752;9.180;2022-10-16T17:29:03;20.10;99.90
423;DHT22;198;48.752;9.180;2022-10-16T17:31:31;20.00;99.90
423;DHT22;198;48.752;9.180;2022-10-16T17:33:58;20.00;99.90
423;DHT22;198;48.752;9.180;2022-10-16T17:36:25;20.00;99.90
423;DHT22;198;48.752;9.180;2022-10-16T17:38:53;19.90;99.90
423;DHT22;198;48.752;9.180;2022-10-16T17:41:21;19.90;99.90
423;DHT22;198;48.752;9.180;2022-10-16T17:43:48;19.90;99.90
423;DHT22;198;48.752;9.180;2022-10-16T17:46:17;19.80;99.90
423;DHT22;198;48.752;9.180;2022-10-16T17:48:45;19.80;99.90
423;DHT22;198;48.752;9.180;2022-10-16T17:51:12;19.80;99.90
423;DHT22;198;48.752;9.180;2022-10-16T17:53:38;19.70;99.90
423;DHT22;198;48.752;9.180;2022-10-16T17:56:10;19.80;99.90
423;DHT22;198;48.752;9.180;2022-10-16T17:58:36;19.70;99.90
423;DHT22;198;48.752;9.180;2022-10-16T18:01:18;19.60;99.90
423;DHT22;198;48.752;9.180;2022-10-16T18:03:48;19.60;99.90
423;DHT22;198;48.752;9.180;2022-10-16T18:06:14;19.50;99.90
423;DHT22;198;48.752;9.180;2022-10-16T18:08:40;19.40;99.90
423;DHT22;198;48.752;9.180;2022-10-16T18:11:05;19.40;99.90
423;DHT22;198;48.752;9.180;2022-10-16T18:13:31;19.30;99.90
423;DHT22;198;48.752;9.180;2022-10-16T18:16:04;19.30;99.90
423;DHT22;198;48.752;9.180;2022-10-16T18:18:30;19.30;99.90
423;DHT22;198;48.752;9.180;2022-10-16T18:21:01;19.30;99.90
423;DHT22;198;48.752;9.180;2022-10-16T18:23:27;19.20;99.90
423;DHT22;198;48.752;9.180;2022-10-16T18:25:53;19.20;99.90
423;DHT22;198;48.752;9.180;2022-10-16T18:28:19;19.20;99.90
423;DHT22;198;48.752;9.180;2022-10-16T18:30:44;19.20;99.90
423;DHT22;198;48.752;9.180;2022-10-16T18:33:10;19.20;99.90
423;DHT22;198;48.752;9.180;2022-10-16T18:35:35;19.10;99.90
423;DHT22;198;48.752;9.180;2022-10-16T18:38:01;19.10;99.90